sensor_id;sensor_type;location;lat;lon;timestamp;temperature;humidity
8994;DHT22;4532;50.886;4.700;2023-03-04T00:01:25;7.80;99.90
8994;DHT22;4532;50.886;4.700;2023-03-04T00:03:52;7.80;99.90
8994;DHT22;4532;50.886;4.700;2023-03-04T00:06:24;7.80;99.90
8994;DHT22;4532;50.886;4.700;2023-03-04T00:08:51;7.70;99.90
8994;DHT22;4532;50.886;4.700;2023-03-04T00:11:21;7.70;99.90
8994;DHT22;4532;50.886;4.700;2023-03-04T00:13:48;7.70;99.90
8994;DHT22;4532;50.886;4.700;2023-03-04T00:16:15;7.70;99.90
8994;DHT22;4532;50.886;4.700;2023-03-04T00:18:52;7.70;99.90
8994;DHT22;4532;50.886;4.700;2023-03-04T00:21:22;7.70;99.90
8994;DHT22;4532;50.886;4.700;2023-03-04T00:23:52;7.80;99.90
8994;DHT22;4532;50.886;4.700;2023-03-04T00:26:21;7.80;99.90
8994;DHT22;4532;50.886;4.700;2023-03-04T00:28:49;7.70;99.90
8994;DHT22;4532;50.886;4.700;2023-03-04T00:31:18;7.70;99.90
8994;DHT22;4532;50.886;4.700;2023-03-04T00:33:53;7.70;99.90
8994;DHT22;4532;50.886;4.700;2023-03-04T00:36:22;7.70;99.90
8994;DHT22;4532;50.886;4.700;2023-03-04T00:38:53;7.70;99.90
8994;DHT22;4532;50.886;4.700;2023-03-04T00:41:23;7.70;99.90
8994;DHT22;4532;50.886;4.700;2023-03-04T00:43:57;7.70;99.90
8994;DHT22;4532;50.886;4.700;2023-03-04T00:46:24;7.80;99.90
8994;DHT22;4532;50.886;4.700;2023-03-04T00:48:56;7.70;99.90
8994;DHT22;4532;50.886;4.700;2023-03-04T00:51:25;7.70;99.90
8994;DHT22;4532;50.886;4.700;2023-03-04T00:53:53;7.70;99.90
8994;DHT22;4532;50.886;4.700;2023-03-04T00:56:24;7.70;99.90
8994;DHT22;4532;50.886;4.700;2023-03-04T00:58:51;7.70;99.90
8994;DHT22;4532;50.886;4.700;2023-03-04T01:01:23;7.70;99.90
8994;DHT22;4532;50.886;4.700;2023-03-04T01:03:50;7.60;99.90
8994;DHT22;4532;50.886;4.700;2023-03-04T01:06:17;7.60;99.90
8994;DHT22;4532;50.886;4.700;2023-03-04T01:08:49;7.60;99.90
8994;DHT22;4532;50.886;4.700;2023-03-04T01:11:16;7.60;99.90
8994;DHT22;4532;50.886;4.700;2023-03-04T01:13:50;7.60;99.90
8994;DHT22;4532;50.886;4.700;2023-03-04T01:16:18;7.60;99.90
8994;DHT22;4532;50.886;4.700;2023-03-04T01:18:45;7.60;99.90
8994;DHT22;4532;50.886;4.700;2023-03-04T01:21:15;7.60;99.90
8994;DHT22;4532;50.886;4.700;2023-03-04T01:23:43;7.70;99.90
8994;DHT22;4532;50.886;4.700;2023-03-04T01:26:10;7.70;99.90
8994;DHT22;4532;50.886;4.700;2023-03-04T01:28:39;7.70;99.90
8994;DHT22;4532;50.886;4.700;2023-03-04T01:31:07;7.80;99.90
8994;DHT22;4532;50.886;4.700;2023-03-04T01:33:34;7.80;99.90
8994;DHT22;4532;50.886;4.700;2023-03-04T01:36:03;7.80;99.90
8994;DHT22;4532;50.886;4.700;2023-03-04T01:38:33;7.80;99.90
8994;DHT22;4532;50.886;4.700;2023-03-04T01:41:02;7.80;99.90
8994;DHT22;4532;50.886;4.700;2023-03-04T01:43:30;7.90;99.90
8994;DHT22;4532;50.886;4.700;2023-03-04T01:45:58;7.80;99.90
8994;DHT22;4532;50.886;4.700;2023-03-04T01:48:28;7.90;99.90
8994;DHT22;4532;50.886;4.700;2023-03-04T01:50:56;7.90;99.90
8994;DHT22;4532;50.886;4.700;2023-03-04T01:53:26;7.90;99.90
8994;DHT22;4532;50.886;4.700;2023-03-04T01:55:56;7.80;99.90
8994;DHT22;4532;50.886;4.700;2023-03-04T01:58:30;7.90;99.90
8994;DHT22;4532;50.886;4.700;2023-03-04T02:00:58;7.90;99.90
8994;DHT22;4532;50.886;4.700;2023-03-04T02:03:30;7.90;99.90
8994;DHT22;4532;50.886;4.700;2023-03-04T02:05:59;7.90;99.90
8994;DHT22;4532;50.886;4.700;2023-03-04T02:08:35;7.90;99.90
8994;DHT22;4532;50.886;4.700;2023-03-04T02:11:03;7.90;99.90
8994;DHT22;4532;50.886;4.700;2023-03-04T02:13:32;7.90;99.90
8994;DHT22;4532;50.886;4.700;2023-03-04T02:16:01;7.90;99.90
8994;DHT22;4532;50.886;4.700;2023-03-04T02:18:33;8.00;99.90
8994;DHT22;4532;50.886;4.700;2023-03-04T02:23:43;7.90;99.90
8994;DHT22;4532;50.886;4.700;2023-03-04T02:26:26;7.90;99.90
8994;DHT22;4532;50.886;4.700;2023-03-04T02:28:58;7.90;99.90
8994;DHT22;4532;50.886;4.700;2023-03-04T02:31:33;7.90;99.90
8994;DHT22;4532;50.886;4.700;2023-03-04T02:34:16;7.90;99.90
8994;DHT22;4532;50.886;4.700;2023-03-04T02:36:47;7.90;99.90
8994;DHT22;4532;50.886;4.700;2023-03-04T02:39:30;7.90;99.90
8994;DHT22;4532;50.886;4.700;2023-03-04T02:41:59;7.90;99.90
8994;DHT22;4532;50.886;4.700;2023-03-04T02:44:32;8.00;99.90
8994;DHT22;4532;50.886;4.700;2023-03-04T02:47:03;7.90;99.90
8994;DHT22;4532;50.886;4.700;2023-03-04T02:49:32;7.90;99.90
8994;DHT22;4532;50.886;4.700;2023-03-04T02:52:07;7.90;99.90
8994;DHT22;4532;50.886;4.700;2023-03-04T02:54:37;7.90;99.90
8994;DHT22;4532;50.886;4.700;2023-03-04T02:57:06;7.90;99.90
8994;DHT22;4532;50.886;4.700;2023-03-04T02:59:35;7.80;99.90
8994;DHT22;4532;50.886;4.700;2023-03-04T03:02:02;7.80;99.90
8994;DHT22;4532;50.886;4.700;2023-03-04T03:04:30;7.90;99.90
8994;DHT22;4532;50.886;4.700;2023-03-04T03:07:02;7.90;99.90
8994;DHT22;4532;50.886;4.700;2023-03-04T03:09:32;7.90;99.90
8994;DHT22;4532;50.886;4.700;2023-03-04T03:12:04;7.90;99.90
8994;DHT22;4532;50.886;4.700;2023-03-04T03:14:36;8.10;99.90
8994;DHT22;4532;50.886;4.700;2023-03-04T03:17:06;8.10;99.90
8994;DHT22;4532;50.886;4.700;2023-03-04T03:19:33;8.10;99.90
8994;DHT22;4532;50.886;4.700;2023-03-04T03:22:05;8.00;99.90
8994;DHT22;4532;50.886;4.700;2023-03-04T03:24:32;8.10;99.90
8994;DHT22;4532;50.886;4.700;2023-03-04T03:27:04;8.00;99.90
8994;DHT22;4532;50.886;4.700;2023-03-04T03:29:33;8.00;99.90
8994;DHT22;4532;50.886;4.700;2023-03-04T03:32:00;8.00;99.90
8994;DHT22;4532;50.886;4.700;2023-03-04T03:34:27;8.00;99.90
8994;DHT22;4532;50.886;4.700;2023-03-04T03:36:55;8.00;99.90
8994;DHT22;4532;50.886;4.700;2023-03-04T03:39:24;8.00;99.90
8994;DHT22;4532;50.886;4.700;2023-03-04T03:41:53;8.00;99.90
8994;DHT22;4532;50.886;4.700;2023-03-04T03:44:26;8.00;99.90
8994;DHT22;4532;50.886;4.700;2023-03-04T03:46:53;7.90;99.90
8994;DHT22;4532;50.886;4.700;2023-03-04T03:49:25;7.90;99.90
8994;DHT22;4532;50.886;4.700;2023-03-04T03:51:54;7.90;99.90
8994;DHT22;4532;50.886;4.700;2023-03-04T03:54:21;7.90;99.90
8994;DHT22;4532;50.886;4.700;2023-03-04T03:56:49;7.90;99.90
8994;DHT22;4532;50.886;4.700;2023-03-04T03:59:16;7.80;99.90
8994;DHT22;4532;50.886;4.700;2023-03-04T04:01:43;7.90;99.90
8994;DHT22;4532;50.886;4.700;2023-03-04T04:04:10;7.80;99.90
8994;DHT22;4532;50.886;4.700;2023-03-04T04:06:42;7.90;99.90
8994;DHT22;4532;50.886;4.700;2023-03-04T04:09:11;7.90;99.90
8994;DHT22;4532;50.886;4.700;2023-03-04T04:11:39;7.90;99.90
8994;DHT22;4532;50.886;4.700;2023-03-04T04:14:11;7.90;99.90
8994;DHT22;4532;50.886;4.700;2023-03-04T04:16:43;7.90;99.90
8994;DHT22;4532;50.886;4.700;2023-03-04T04:19:16;7.80;99.90
8994;DHT22;4532;50.886;4.700;2023-03-04T04:21:44;7.90;99.90
8994;DHT22;4532;50.886;4.700;2023-03-04T04:24:11;7.90;99.90
8994;DHT22;4532;50.886;4.700;2023-03-04T04:26:41;7.80;99.90
8994;DHT22;4532;50.886;4.700;2023-03-04T04:29:13;7.90;99.90
8994;DHT22;4532;50.886;4.700;2023-03-04T04:31:41;7.90;99.90
8994;DHT22;4532;50.886;4.700;2023-03-04T04:34:10;7.90;99.90
8994;DHT22;4532;50.886;4.700;2023-03-04T04:36:40;7.80;99.90
8994;DHT22;4532;50.886;4.700;2023-03-04T04:39:09;7.90;99.90
8994;DHT22;4532;50.886;4.700;2023-03-04T04:41:39;7.80;99.90
8994;DHT22;4532;50.886;4.700;2023-03-04T04:44:10;7.80;99.90
8994;DHT22;4532;50.886;4.700;2023-03-04T04:46:40;7.90;99.90
8994;DHT22;4532;50.886;4.700;2023-03-04T04:49:12;7.80;99.90
8994;DHT22;4532;50.886;4.700;2023-03-04T04:51:40;7.80;99.90
8994;DHT22;4532;50.886;4.700;2023-03-04T04:54:09;7.80;99.90
8994;DHT22;4532;50.886;4.700;2023-03-04T04:56:36;7.80;99.90
8994;DHT22;4532;50.886;4.700;2023-03-04T04:59:04;7.80;99.90
8994;DHT22;4532;50.886;4.700;2023-03-04T05:01:31;7.80;99.90
8994;DHT22;4532;50.886;4.700;2023-03-04T05:04:01;7.80;99.90
8994;DHT22;4532;50.886;4.700;2023-03-04T05:06:28;7.70;99.90
8994;DHT22;4532;50.886;4.700;2023-03-04T05:08:55;7.60;99.90
8994;DHT22;4532;50.886;4.700;2023-03-04T05:11:23;7.60;99.90
8994;DHT22;4532;50.886;4.700;2023-03-04T05:13:50;7.60;99.90
8994;DHT22;4532;50.886;4.700;2023-03-04T05:16:19;7.60;99.90
8994;DHT22;4532;50.886;4.700;2023-03-04T05:18:51;7.60;99.90
8994;DHT22;4532;50.886;4.700;2023-03-04T05:21:21;7.60;99.90
8994;DHT22;4532;50.886;4.700;2023-03-04T05:23:48;7.60;99.90
8994;DHT22;4532;50.886;4.700;2023-03-04T05:26:19;7.60;99.90
8994;DHT22;4532;50.886;4.700;2023-03-04T05:28:49;7.60;99.90
8994;DHT22;4532;50.886;4.700;2023-03-04T05:31:18;7.60;99.90
8994;DHT22;4532;50.886;4.700;2023-03-04T05:33:48;7.70;99.90
8994;DHT22;4532;50.886;4.700;2023-03-04T05:36:15;7.70;99.90
8994;DHT22;4532;50.886;4.700;2023-03-04T05:38:47;7.70;99.90
8994;DHT22;4532;50.886;4.700;2023-03-04T05:41:14;7.80;99.90
8994;DHT22;4532;50.886;4.700;2023-03-04T05:43:47;7.80;99.90
8994;DHT22;4532;50.886;4.700;2023-03-04T05:46:17;7.80;99.90
8994;DHT22;4532;50.886;4.700;2023-03-04T05:48:52;7.80;99.90
8994;DHT22;4532;50.886;4.700;2023-03-04T05:51:24;7.80;99.90
8994;DHT22;4532;50.886;4.700;2023-03-04T05:53:53;7.80;99.90
8994;DHT22;4532;50.886;4.700;2023-03-04T05:56:23;7.80;99.90
8994;DHT22;4532;50.886;4.700;2023-03-04T05:58:56;7.90;99.90
8994;DHT22;4532;50.886;4.700;2023-03-04T06:01:25;7.90;99.90
8994;DHT22;4532;50.886;4.700;2023-03-04T06:03:53;7.90;99.90
8994;DHT22;4532;50.886;4.700;2023-03-04T06:06:22;7.90;99.90
8994;DHT22;4532;50.886;4.700;2023-03-04T06:08:52;7.80;99.90
8994;DHT22;4532;50.886;4.700;2023-03-04T06:11:19;7.90;99.90
8994;DHT22;4532;50.886;4.700;2023-03-04T06:13:48;7.90;99.90
8994;DHT22;4532;50.886;4.700;2023-03-04T06:16:17;7.90;99.90
8994;DHT22;4532;50.886;4.700;2023-03-04T06:18:45;7.90;99.90
8994;DHT22;4532;50.886;4.700;2023-03-04T06:21:12;7.90;99.90
8994;DHT22;4532;50.886;4.700;2023-03-04T06:23:39;7.90;99.90
8994;DHT22;4532;50.886;4.700;2023-03-04T06:26:10;7.90;99.90
8994;DHT22;4532;50.886;4.700;2023-03-04T06:28:42;7.90;99.90
8994;DHT22;4532;50.886;4.700;2023-03-04T06:31:12;7.90;99.90
8994;DHT22;4532;50.886;4.700;2023-03-04T06:33:46;7.90;99.90
8994;DHT22;4532;50.886;4.700;2023-03-04T06:36:13;8.00;99.90
8994;DHT22;4532;50.886;4.700;2023-03-04T06:38:43;7.90;99.90
8994;DHT22;4532;50.886;4.700;2023-03-04T06:41:13;7.90;99.90
8994;DHT22;4532;50.886;4.700;2023-03-04T06:43:40;7.90;99.90
8994;DHT22;4532;50.886;4.700;2023-03-04T06:46:10;8.00;99.90
8994;DHT22;4532;50.886;4.700;2023-03-04T06:48:41;8.00;99.90
8994;DHT22;4532;50.886;4.700;2023-03-04T06:51:11;8.00;99.90
8994;DHT22;4532;50.886;4.700;2023-03-04T06:53:39;8.00;99.90
8994;DHT22;4532;50.886;4.700;2023-03-04T06:56:13;8.00;99.90
8994;DHT22;4532;50.886;4.700;2023-03-04T06:58:44;8.00;99.90
8994;DHT22;4532;50.886;4.700;2023-03-04T07:01:18;8.00;99.90
8994;DHT22;4532;50.886;4.700;2023-03-04T07:03:53;8.00;99.90
8994;DHT22;4532;50.886;4.700;2023-03-04T07:06:23;8.00;99.90
8994;DHT22;4532;50.886;4.700;2023-03-04T07:08:51;8.10;99.90
8994;DHT22;4532;50.886;4.700;2023-03-04T07:11:21;8.00;99.90
8994;DHT22;4532;50.886;4.700;2023-03-04T07:13:51;8.10;99.90
8994;DHT22;4532;50.886;4.700;2023-03-04T07:16:23;8.10;99.90
8994;DHT22;4532;50.886;4.700;2023-03-04T07:18:51;8.10;99.90
8994;DHT22;4532;50.886;4.700;2023-03-04T07:21:20;8.10;99.90
8994;DHT22;4532;50.886;4.700;2023-03-04T07:23:47;8.10;99.90
8994;DHT22;4532;50.886;4.700;2023-03-04T07:26:19;8.10;99.90
8994;DHT22;4532;50.886;4.700;2023-03-04T07:28:46;8.20;99.90
8994;DHT22;4532;50.886;4.700;2023-03-04T07:31:28;8.20;99.90
8994;DHT22;4532;50.886;4.700;2023-03-04T07:34:00;8.20;99.90
8994;DHT22;4532;50.886;4.700;2023-03-04T07:36:32;8.20;99.90
8994;DHT22;4532;50.886;4.700;2023-03-04T07:38:59;8.20;99.90
8994;DHT22;4532;50.886;4.700;2023-03-04T07:41:32;8.20;99.90
8994;DHT22;4532;50.886;4.700;2023-03-04T07:44:08;8.20;99.90
8994;DHT22;4532;50.886;4.700;2023-03-04T07:46:41;8.20;99.90
8994;DHT22;4532;50.886;4.700;2023-03-04T07:49:12;8.20;99.90
8994;DHT22;4532;50.886;4.700;2023-03-04T07:51:42;8.30;99.90
8994;DHT22;4532;50.886;4.700;2023-03-04T07:54:09;8.30;99.90
8994;DHT22;4532;50.886;4.700;2023-03-04T07:56:42;8.30;99.90
8994;DHT22;4532;50.886;4.700;2023-03-04T07:59:09;8.30;99.90
8994;DHT22;4532;50.886;4.700;2023-03-04T08:01:39;8.30;99.90
8994;DHT22;4532;50.886;4.700;2023-03-04T08:04:08;8.30;99.90
8994;DHT22;4532;50.886;4.700;2023-03-04T08:06:39;8.30;99.90
8994;DHT22;4532;50.886;4.700;2023-03-04T08:09:10;8.40;99.90
8994;DHT22;4532;50.886;4.700;2023-03-04T08:11:44;8.60;99.90
8994;DHT22;4532;50.886;4.700;2023-03-04T08:14:16;8.60;99.90
8994;DHT22;4532;50.886;4.700;2023-03-04T08:16:45;8.60;99.90
8994;DHT22;4532;50.886;4.700;2023-03-04T08:19:17;8.60;99.90
8994;DHT22;4532;50.886;4.700;2023-03-04T08:21:49;8.60;99.90
8994;DHT22;4532;50.886;4.700;2023-03-04T08:24:19;8.60;99.90
8994;DHT22;4532;50.886;4.700;2023-03-04T08:26:51;8.70;99.90
8994;DHT22;4532;50.886;4.700;2023-03-04T08:29:20;8.80;99.90
8994;DHT22;4532;50.886;4.700;2023-03-04T08:31:51;9.10;99.90
8994;DHT22;4532;50.886;4.700;2023-03-04T08:34:24;9.00;99.90
8994;DHT22;4532;50.886;4.700;2023-03-04T08:36:53;9.00;99.90
8994;DHT22;4532;50.886;4.700;2023-03-04T08:39:20;8.80;99.90
8994;DHT22;4532;50.886;4.700;2023-03-04T08:41:48;8.70;99.90
8994;DHT22;4532;50.886;4.700;2023-03-04T08:44:15;8.70;99.90
8994;DHT22;4532;50.886;4.700;2023-03-04T08:46:42;8.60;99.90
8994;DHT22;4532;50.886;4.700;2023-03-04T08:49:13;8.60;99.90
8994;DHT22;4532;50.886;4.700;2023-03-04T08:51:43;8.50;99.90
8994;DHT22;4532;50.886;4.700;2023-03-04T08:54:13;8.50;99.90
8994;DHT22;4532;50.886;4.700;2023-03-04T08:56:41;8.50;99.90
8994;DHT22;4532;50.886;4.700;2023-03-04T08:59:11;8.40;99.90
8994;DHT22;4532;50.886;4.700;2023-03-04T09:01:38;8.40;99.90
8994;DHT22;4532;50.886;4.700;2023-03-04T09:04:09;8.50;99.90
8994;DHT22;4532;50.886;4.700;2023-03-04T09:06:40;8.50;99.90
8994;DHT22;4532;50.886;4.700;2023-03-04T09:09:10;8.50;99.90
8994;DHT22;4532;50.886;4.700;2023-03-04T09:11:37;8.60;99.90
8994;DHT22;4532;50.886;4.700;2023-03-04T09:14:04;8.70;99.90
8994;DHT22;4532;50.886;4.700;2023-03-04T09:16:31;8.70;99.90
8994;DHT22;4532;50.886;4.700;2023-03-04T09:18:59;8.80;99.90
8994;DHT22;4532;50.886;4.700;2023-03-04T09:21:29;8.80;99.90
8994;DHT22;4532;50.886;4.700;2023-03-04T09:23:58;8.90;99.90
8994;DHT22;4532;50.886;4.700;2023-03-04T09:26:29;9.00;99.90
8994;DHT22;4532;50.886;4.700;2023-03-04T09:29:00;9.00;99.90
8994;DHT22;4532;50.886;4.700;2023-03-04T09:31:30;8.90;99.90
8994;DHT22;4532;50.886;4.700;2023-03-04T09:33:58;9.00;99.90
8994;DHT22;4532;50.886;4.700;2023-03-04T09:36:30;9.00;99.90
8994;DHT22;4532;50.886;4.700;2023-03-04T09:39:02;9.00;99.90
8994;DHT22;4532;50.886;4.700;2023-03-04T09:41:49;9.00;99.90
8994;DHT22;4532;50.886;4.700;2023-03-04T09:46:56;9.00;99.90
8994;DHT22;4532;50.886;4.700;2023-03-04T09:49:27;9.10;99.90
8994;DHT22;4532;50.886;4.700;2023-03-04T09:52:04;9.10;99.90
8994;DHT22;4532;50.886;4.700;2023-03-04T09:55:03;9.20;99.90
8994;DHT22;4532;50.886;4.700;2023-03-04T09:57:44;9.20;99.90
8994;DHT22;4532;50.886;4.700;2023-03-04T10:03:17;9.20;99.90
8994;DHT22;4532;50.886;4.700;2023-03-04T10:11:05;9.00;99.90
8994;DHT22;4532;50.886;4.700;2023-03-04T10:13:45;9.00;99.90
8994;DHT22;4532;50.886;4.700;2023-03-04T10:16:20;9.00;99.90
8994;DHT22;4532;50.886;4.700;2023-03-04T10:18:53;9.00;99.90
8994;DHT22;4532;50.886;4.700;2023-03-04T10:21:41;9.00;99.90
8994;DHT22;4532;50.886;4.700;2023-03-04T10:24:18;9.10;99.90
8994;DHT22;4532;50.886;4.700;2023-03-04T10:26:50;9.10;99.90
8994;DHT22;4532;50.886;4.700;2023-03-04T10:29:24;9.10;99.90
8994;DHT22;4532;50.886;4.700;2023-03-04T10:31:53;9.20;99.90
8994;DHT22;4532;50.886;4.700;2023-03-04T10:34:25;9.20;99.90
8994;DHT22;4532;50.886;4.700;2023-03-04T10:37:04;9.30;99.90
8994;DHT22;4532;50.886;4.700;2023-03-04T10:44:54;9.30;99.90
8994;DHT22;4532;50.886;4.700;2023-03-04T10:47:24;9.20;99.90
8994;DHT22;4532;50.886;4.700;2023-03-04T10:49:57;9.20;99.90
8994;DHT22;4532;50.886;4.700;2023-03-04T10:55:19;9.40;99.90
8994;DHT22;4532;50.886;4.700;2023-03-04T10:57:51;9.40;99.90
8994;DHT22;4532;50.886;4.700;2023-03-04T11:03:19;9.50;99.90
8994;DHT22;4532;50.886;4.700;2023-03-04T11:05:48;9.50;99.90
8994;DHT22;4532;50.886;4.700;2023-03-04T11:08:21;9.60;99.90
8994;DHT22;4532;50.886;4.700;2023-03-04T11:10:49;9.60;99.90
8994;DHT22;4532;50.886;4.700;2023-03-04T11:13:25;9.60;99.90
8994;DHT22;4532;50.886;4.700;2023-03-04T11:16:00;9.70;99.90
8994;DHT22;4532;50.886;4.700;2023-03-04T11:21:16;9.80;99.90
8994;DHT22;4532;50.886;4.700;2023-03-04T11:26:39;10.00;99.90
8994;DHT22;4532;50.886;4.700;2023-03-04T11:29:14;10.10;99.90
8994;DHT22;4532;50.886;4.700;2023-03-04T11:34:41;10.20;99.90
8994;DHT22;4532;50.886;4.700;2023-03-04T11:40:04;10.40;99.90
8994;DHT22;4532;50.886;4.700;2023-03-04T11:45:11;10.40;99.90
8994;DHT22;4532;50.886;4.700;2023-03-04T11:48:15;10.60;99.90
8994;DHT22;4532;50.886;4.700;2023-03-04T11:51:05;10.60;99.90
8994;DHT22;4532;50.886;4.700;2023-03-04T12:02:24;10.70;99.90
8994;DHT22;4532;50.886;4.700;2023-03-04T12:05:18;10.80;99.90
8994;DHT22;4532;50.886;4.700;2023-03-04T12:07:52;10.90;99.90
8994;DHT22;4532;50.886;4.700;2023-03-04T12:21:27;11.10;99.90
8994;DHT22;4532;50.886;4.700;2023-03-04T12:24:12;11.00;99.90
8994;DHT22;4532;50.886;4.700;2023-03-04T12:27:09;10.80;99.90
8994;DHT22;4532;50.886;4.700;2023-03-04T12:41:33;10.70;99.90
8994;DHT22;4532;50.886;4.700;2023-03-04T12:55:01;10.80;99.90
8994;DHT22;4532;50.886;4.700;2023-03-04T12:57:33;10.80;99.90
8994;DHT22;4532;50.886;4.700;2023-03-04T13:10:16;10.90;99.90
8994;DHT22;4532;50.886;4.700;2023-03-04T13:12:50;10.90;99.90
8994;DHT22;4532;50.886;4.700;2023-03-04T13:15:39;10.90;99.90
8994;DHT22;4532;50.886;4.700;2023-03-04T13:18:34;10.90;99.90
8994;DHT22;4532;50.886;4.700;2023-03-04T13:23:40;11.00;99.90
8994;DHT22;4532;50.886;4.700;2023-03-04T13:29:19;11.00;99.90
8994;DHT22;4532;50.886;4.700;2023-03-04T13:32:12;11.00;99.90
8994;DHT22;4532;50.886;4.700;2023-03-04T13:37:34;11.10;99.90
8994;DHT22;4532;50.886;4.700;2023-03-04T13:42:53;11.10;99.90
8994;DHT22;4532;50.886;4.700;2023-03-04T13:47:59;11.10;99.90
8994;DHT22;4532;50.886;4.700;2023-03-04T13:50:38;11.10;99.90
8994;DHT22;4532;50.886;4.700;2023-03-04T13:58:36;11.10;99.90
8994;DHT22;4532;50.886;4.700;2023-03-04T14:01:29;11.00;99.90
8994;DHT22;4532;50.886;4.700;2023-03-04T14:04:04;10.90;99.90
8994;DHT22;4532;50.886;4.700;2023-03-04T14:06:45;10.80;99.90
8994;DHT22;4532;50.886;4.700;2023-03-04T14:09:21;10.80;99.90
8994;DHT22;4532;50.886;4.700;2023-03-04T14:11:54;10.90;99.90
8994;DHT22;4532;50.886;4.700;2023-03-04T14:14:34;10.90;99.90
8994;DHT22;4532;50.886;4.700;2023-03-04T14:17:16;10.90;99.90
8994;DHT22;4532;50.886;4.700;2023-03-04T14:19:45;11.00;99.90
8994;DHT22;4532;50.886;4.700;2023-03-04T14:22:27;10.90;99.90
8994;DHT22;4532;50.886;4.700;2023-03-04T14:25:03;10.90;99.90
8994;DHT22;4532;50.886;4.700;2023-03-04T14:27:34;10.90;99.90
8994;DHT22;4532;50.886;4.700;2023-03-04T14:30:08;10.90;99.90
8994;DHT22;4532;50.886;4.700;2023-03-04T14:33:15;10.90;99.90
8994;DHT22;4532;50.886;4.700;2023-03-04T14:35:48;10.80;99.90
8994;DHT22;4532;50.886;4.700;2023-03-04T14:38:32;10.80;99.90
8994;DHT22;4532;50.886;4.700;2023-03-04T14:41:21;10.80;99.90
8994;DHT22;4532;50.886;4.700;2023-03-04T14:46:57;10.90;99.90
8994;DHT22;4532;50.886;4.700;2023-03-04T14:49:37;10.80;99.90
8994;DHT22;4532;50.886;4.700;2023-03-04T14:52:27;10.90;99.90
8994;DHT22;4532;50.886;4.700;2023-03-04T14:57:46;10.90;99.90
8994;DHT22;4532;50.886;4.700;2023-03-04T15:02:53;10.90;99.90
8994;DHT22;4532;50.886;4.700;2023-03-04T15:08:17;11.00;99.90
8994;DHT22;4532;50.886;4.700;2023-03-04T15:10:59;11.00;99.90
8994;DHT22;4532;50.886;4.700;2023-03-04T15:13:48;11.00;99.90
8994;DHT22;4532;50.886;4.700;2023-03-04T15:16:22;11.00;99.90
8994;DHT22;4532;50.886;4.700;2023-03-04T15:18:58;11.00;99.90
8994;DHT22;4532;50.886;4.700;2023-03-04T15:21:35;11.00;99.90
8994;DHT22;4532;50.886;4.700;2023-03-04T15:24:09;11.00;99.90
8994;DHT22;4532;50.886;4.700;2023-03-04T15:26:39;11.00;99.90
8994;DHT22;4532;50.886;4.700;2023-03-04T15:29:14;11.00;99.90
8994;DHT22;4532;50.886;4.700;2023-03-04T15:31:44;11.00;99.90
8994;DHT22;4532;50.886;4.700;2023-03-04T15:34:19;11.00;99.90
8994;DHT22;4532;50.886;4.700;2023-03-04T15:36:51;11.00;99.90
8994;DHT22;4532;50.886;4.700;2023-03-04T15:39:21;11.00;99.90
8994;DHT22;4532;50.886;4.700;2023-03-04T15:41:51;11.10;99.90
8994;DHT22;4532;50.886;4.700;2023-03-04T15:44:18;11.10;99.90
8994;DHT22;4532;50.886;4.700;2023-03-04T15:46:46;11.10;99.90
8994;DHT22;4532;50.886;4.700;2023-03-04T15:49:13;11.10;99.90
8994;DHT22;4532;50.886;4.700;2023-03-04T15:51:42;11.20;99.90
8994;DHT22;4532;50.886;4.700;2023-03-04T15:54:12;11.20;99.90
8994;DHT22;4532;50.886;4.700;2023-03-04T15:56:44;11.20;99.90
8994;DHT22;4532;50.886;4.700;2023-03-04T15:59:17;11.20;99.90
8994;DHT22;4532;50.886;4.700;2023-03-04T16:01:49;11.20;99.90
8994;DHT22;4532;50.886;4.700;2023-03-04T16:04:17;11.20;99.90
8994;DHT22;4532;50.886;4.700;2023-03-04T16:06:45;11.10;99.90
8994;DHT22;4532;50.886;4.700;2023-03-04T16:09:15;11.10;99.90
8994;DHT22;4532;50.886;4.700;2023-03-04T16:11:44;11.10;99.90
8994;DHT22;4532;50.886;4.700;2023-03-04T16:14:16;11.10;99.90
8994;DHT22;4532;50.886;4.700;2023-03-04T16:16:45;11.10;99.90
8994;DHT22;4532;50.886;4.700;2023-03-04T16:19:16;11.10;99.90
8994;DHT22;4532;50.886;4.700;2023-03-04T16:21:43;11.10;99.90
8994;DHT22;4532;50.886;4.700;2023-03-04T16:24:17;11.00;99.90
8994;DHT22;4532;50.886;4.700;2023-03-04T16:26:47;11.00;99.90
8994;DHT22;4532;50.886;4.700;2023-03-04T16:29:15;11.00;99.90
8994;DHT22;4532;50.886;4.700;2023-03-04T16:31:42;11.00;99.90
8994;DHT22;4532;50.886;4.700;2023-03-04T16:34:12;11.00;99.90
8994;DHT22;4532;50.886;4.700;2023-03-04T16:36:41;11.00;99.90
8994;DHT22;4532;50.886;4.700;2023-03-04T16:39:20;11.00;99.90
8994;DHT22;4532;50.886;4.700;2023-03-04T16:41:48;11.00;99.90
8994;DHT22;4532;50.886;4.700;2023-03-04T16:44:18;10.90;99.90
8994;DHT22;4532;50.886;4.700;2023-03-04T16:46:45;10.90;99.90
8994;DHT22;4532;50.886;4.700;2023-03-04T16:49:15;10.90;99.90
8994;DHT22;4532;50.886;4.700;2023-03-04T16:51:47;10.90;99.90
8994;DHT22;4532;50.886;4.700;2023-03-04T16:54:26;10.90;99.90
8994;DHT22;4532;50.886;4.700;2023-03-04T16:56:57;10.90;99.90
8994;DHT22;4532;50.886;4.700;2023-03-04T16:59:26;10.90;99.90
8994;DHT22;4532;50.886;4.700;2023-03-04T17:01:54;10.90;99.90
8994;DHT22;4532;50.886;4.700;2023-03-04T17:04:21;10.90;99.90
8994;DHT22;4532;50.886;4.700;2023-03-04T17:06:51;10.90;99.90
8994;DHT22;4532;50.886;4.700;2023-03-04T17:09:20;10.90;99.90
8994;DHT22;4532;50.886;4.700;2023-03-04T17:11:50;10.90;99.90
8994;DHT22;4532;50.886;4.700;2023-03-04T17:14:18;10.90;99.90
8994;DHT22;4532;50.886;4.700;2023-03-04T17:16:48;10.90;99.90
8994;DHT22;4532;50.886;4.700;2023-03-04T17:19:20;10.90;99.90
8994;DHT22;4532;50.886;4.700;2023-03-04T17:21:52;10.90;99.90
8994;DHT22;4532;50.886;4.700;2023-03-04T17:24:21;10.90;99.90
8994;DHT22;4532;50.886;4.700;2023-03-04T17:26:48;10.90;99.90
8994;DHT22;4532;50.886;4.700;2023-03-04T17:29:18;10.80;99.90
8994;DHT22;4532;50.886;4.700;2023-03-04T17:31:47;10.80;99.90
8994;DHT22;4532;50.886;4.700;2023-03-04T17:34:21;10.80;99.90
8994;DHT22;4532;50.886;4.700;2023-03-04T17:36:48;10.80;99.90
8994;DHT22;4532;50.886;4.700;2023-03-04T17:39:16;10.80;99.90
8994;DHT22;4532;50.886;4.700;2023-03-04T17:41:49;10.80;99.90
8994;DHT22;4532;50.886;4.700;2023-03-04T17:44:17;10.80;99.90
8994;DHT22;4532;50.886;4.700;2023-03-04T17:46:48;10.80;99.90
8994;DHT22;4532;50.886;4.700;2023-03-04T17:49:15;10.80;99.90
8994;DHT22;4532;50.886;4.700;2023-03-04T17:51:43;10.80;99.90
8994;DHT22;4532;50.886;4.700;2023-03-04T17:54:16;10.70;99.90
8994;DHT22;4532;50.886;4.700;2023-03-04T17:56:45;10.70;99.90
8994;DHT22;4532;50.886;4.700;2023-03-04T17:59:18;10.70;99.90
8994;DHT22;4532;50.886;4.700;2023-03-04T18:01:46;10.70;99.90
8994;DHT22;4532;50.886;4.700;2023-03-04T18:04:16;10.70;99.90
8994;DHT22;4532;50.886;4.700;2023-03-04T18:06:43;10.70;99.90
8994;DHT22;4532;50.886;4.700;2023-03-04T18:09:10;10.70;99.90
8994;DHT22;4532;50.886;4.700;2023-03-04T18:11:42;10.70;99.90
8994;DHT22;4532;50.886;4.700;2023-03-04T18:14:12;10.70;99.90
8994;DHT22;4532;50.886;4.700;2023-03-04T18:16:41;10.60;99.90
8994;DHT22;4532;50.886;4.700;2023-03-04T18:19:11;10.60;99.90
8994;DHT22;4532;50.886;4.700;2023-03-04T18:21:46;10.60;99.90
8994;DHT22;4532;50.886;4.700;2023-03-04T18:24:14;10.50;99.90
8994;DHT22;4532;50.886;4.700;2023-03-04T18:26:43;10.50;99.90
8994;DHT22;4532;50.886;4.700;2023-03-04T18:29:15;10.50;99.90
8994;DHT22;4532;50.886;4.700;2023-03-04T18:31:44;10.50;99.90
8994;DHT22;4532;50.886;4.700;2023-03-04T18:34:19;10.50;99.90
8994;DHT22;4532;50.886;4.700;2023-03-04T18:36:50;10.50;99.90
8994;DHT22;4532;50.886;4.700;2023-03-04T18:39:18;10.50;99.90
8994;DHT22;4532;50.886;4.700;2023-03-04T18:41:45;10.50;99.90